Time;durP1;ratioP1;P1;durP2;ratioP2;P2;SDS_P1;SDS_P2;PMS_P1;PMS_P2;Temp;Humidity;BMP_temperature;BMP_pressure;BME280_temperature;BME280_humidity;BME280_pressure;Samples;Min_cycle;Max_cycle;Signal;HPM_P1;HPM_P2
2023/07/07 00:02:59;;;;;;;8.55;7.05;;;;;;;13.28;100.00;101661.88;5114958;28;20089;-80
2023/07/07 00:05:25;;;;;;;9.95;6.40;;;;;;;13.24;100.00;101654.44;5114709;28;20020;-80
2023/07/07 00:07:50;;;;;;;9.30;7.17;;;;;;;13.19;100.00;101665.00;5095900;28;20047;-80
2023/07/07 00:13:37;;;;;;;8.48;6.10;;;;;;;13.12;100.00;101662.31;5114872;28;20050;-79
2023/07/07 00:19:24;;;;;;;9.55;6.72;;;;;;;13.01;100.00;101665.66;5114514;28;20329;-79
2023/07/07 00:25:11;;;;;;;11.52;7.20;;;;;;;12.99;100.00;101673.06;5113750;28;20322;-81
2023/07/07 00:30:58;;;;;;;8.50;6.40;;;;;;;12.96;100.00;101673.47;5114545;28;20092;-81
2023/07/07 00:36:45;;;;;;;10.73;6.88;;;;;;;12.97;100.00;101670.59;5114721;28;20082;-79
2023/07/07 00:42:32;;;;;;;10.32;6.72;;;;;;;12.93;100.00;101668.53;5114488;28;20055;-79
2023/07/07 00:48:24;;;;;;;7.40;6.05;;;;;;;12.99;100.00;101673.06;5114094;28;20405;-80
2023/07/07 00:54:16;;;;;;;11.32;6.72;;;;;;;12.93;100.00;101665.84;5114472;28;20058;-80
2023/07/07 01:00:04;;;;;;;10.25;7.60;;;;;;;13.02;100.00;101664.63;5114218;28;20130;-79
2023/07/07 01:05:55;;;;;;;13.45;7.38;;;;;;;13.01;100.00;101673.72;5113974;28;20070;-81
2023/07/07 01:08:21;;;;;;;12.30;7.88;;;;;;;13.00;100.00;101680.09;5112743;28;20096;-81
2023/07/07 01:14:13;;;;;;;10.77;6.72;;;;;;;12.95;100.00;101679.88;5113864;28;20171;-80
2023/07/07 01:20:12;;;;;;;10.60;7.88;;;;;;;12.94;100.00;101680.94;5113725;28;20055;-80
2023/07/07 01:26:35;;;;;;;9.18;6.93;;;;;;;12.83;100.00;101671.66;5112820;28;20518;-81
2023/07/07 01:32:27;;;;;;;9.82;6.38;;;;;;;12.79;100.00;101673.13;5113411;28;20490;-81
2023/07/07 01:38:48;;;;;;;9.93;6.95;;;;;;;12.73;100.00;101673.13;5113176;28;20108;-81
2023/07/07 01:41:33;;;;;;;11.02;7.28;;;;;;;12.72;100.00;101674.94;5057519;28;20145;-80
2023/07/07 01:47:31;;;;;;;8.82;6.95;;;;;;;12.64;100.00;101677.84;5113520;28;20080;-79
2023/07/07 01:53:24;;;;;;;10.50;7.05;;;;;;;12.59;100.00;101681.16;5113405;28;20054;-79
2023/07/07 01:59:13;;;;;;;16.88;7.80;;;;;;;12.55;100.00;101671.88;5113206;28;20054;-80
2023/07/07 02:05:00;;;;;;;9.35;7.00;;;;;;;12.53;100.00;101675.81;5113216;28;20035;-80
2023/07/07 02:10:47;;;;;;;9.35;6.93;;;;;;;12.44;100.00;101675.19;5113037;28;20289;-80
2023/07/07 02:16:33;;;;;;;11.48;7.32;;;;;;;12.47;100.00;101672.09;5112432;28;20342;-81
2023/07/07 02:22:20;;;;;;;12.00;8.45;;;;;;;12.35;100.00;101661.13;5113116;28;20133;-81
2023/07/07 02:28:07;;;;;;;10.60;7.07;;;;;;;12.26;100.00;101673.09;5112593;28;20141;-80
2023/07/07 02:33:54;;;;;;;10.95;7.20;;;;;;;12.21;100.00;101662.16;5112938;28;20392;-81
2023/07/07 02:36:20;;;;;;;11.05;8.13;;;;;;;12.20;100.00;101662.38;5112096;28;20024;-80
2023/07/07 02:38:46;;;;;;;15.30;7.75;;;;;;;12.20;100.00;101676.59;5111295;28;20099;-80
2023/07/07 02:44:33;;;;;;;11.73;6.97;;;;;;;12.20;100.00;101675.78;5111693;28;20085;-80
2023/07/07 02:50:19;;;;;;;9.80;7.65;;;;;;;12.09;100.00;101671.81;5112089;28;20269;-81
2023/07/07 02:56:06;;;;;;;9.10;7.13;;;;;;;11.96;100.00;101667.28;5112372;28;20049;-80
2023/07/07 03:01:54;;;;;;;10.07;7.50;;;;;;;11.92;100.00;101679.44;5111990;28;20088;-81
2023/07/07 03:07:41;;;;;;;10.40;7.20;;;;;;;11.84;100.00;101689.50;5112097;28;20084;-80
2023/07/07 03:13:28;;;;;;;9.57;7.93;;;;;;;11.80;100.00;101691.75;5112114;28;20049;-79
2023/07/07 03:19:16;;;;;;;12.55;8.32;;;;;;;11.67;100.00;101686.31;5111644;28;20322;-82
2023/07/07 03:21:41;;;;;;;10.87;8.07;;;;;;;11.62;100.00;101680.75;5092707;28;20048;-81
2023/07/07 03:27:28;;;;;;;13.48;7.93;;;;;;;11.62;100.00;101678.88;5114226;28;20528;-80
2023/07/07 03:33:14;;;;;;;9.98;7.85;;;;;;;11.61;100.00;101682.59;5115131;28;20276;-82
2023/07/07 03:39:02;;;;;;;10.10;7.65;;;;;;;11.69;100.00;101695.81;5115125;28;20042;-81
2023/07/07 03:44:49;;;;;;;14.40;9.00;;;;;;;11.65;100.00;101691.06;5115139;28;20074;-79
2023/07/07 03:50:36;;;;;;;8.77;7.20;;;;;;;11.59;100.00;101684.66;5114838;28;20311;-80
2023/07/07 03:53:01;;;;;;;10.90;9.05;;;;;;;11.62;100.00;101686.09;5095917;28;20044;-80
2023/07/07 03:58:48;;;;;;;11.93;8.85;;;;;;;11.77;100.00;101684.91;5114727;28;20318;-80
2023/07/07 04:04:35;;;;;;;10.07;8.63;;;;;;;11.91;100.00;101688.50;5114862;28;20072;-80
2023/07/07 04:10:22;;;;;;;10.57;7.72;;;;;;;11.93;100.00;101693.66;5113843;28;20327;-80
2023/07/07 04:16:12;;;;;;;11.95;9.13;;;;;;;12.09;100.00;101687.91;5114422;28;20281;-80
2023/07/07 04:25:20;;;;;;;12.23;8.38;;;;;;;12.51;100.00;101704.69;5114557;28;20474;-80
2023/07/07 04:31:10;;;;;;;13.00;9.30;;;;;;;12.85;100.00;101715.22;5114499;28;20561;-80
2023/07/07 04:36:57;;;;;;;12.73;7.85;;;;;;;13.16;100.00;101711.06;5113720;28;20092;-80
2023/07/07 04:42:43;;;;;;;11.45;8.27;;;;;;;13.47;100.00;101707.69;5114021;28;20100;-82
2023/07/07 04:48:31;;;;;;;10.75;8.93;;;;;;;13.89;100.00;101700.91;5113925;28;20360;-81
2023/07/07 04:54:18;;;;;;;10.05;8.88;;;;;;;14.18;100.00;101699.50;5113928;28;20043;-81
2023/07/07 05:00:08;;;;;;;10.13;8.30;;;;;;;14.69;100.00;101706.59;5114114;28;20767;-80
2023/07/07 05:05:56;;;;;;;10.02;7.05;;;;;;;15.41;100.00;101705.09;5113934;28;20059;-79
2023/07/07 05:11:43;;;;;;;12.18;6.88;;;;;;;16.01;100.00;101699.78;5113766;28;20054;-82
2023/07/07 05:17:30;;;;;;;9.35;6.75;;;;;;;16.49;100.00;101710.50;5113439;28;20337;-81
2023/07/07 05:23:16;;;;;;;9.27;7.13;;;;;;;17.28;100.00;101706.44;5113414;28;20354;-79
2023/07/07 05:29:05;;;;;;;8.23;6.47;;;;;;;18.12;99.99;101701.38;5113625;28;20310;-79
2023/07/07 05:34:52;;;;;;;8.43;5.80;;;;;;;18.87;93.53;101713.78;5113718;28;20050;-81
2023/07/07 05:40:42;;;;;;;9.38;6.25;;;;;;;19.60;87.63;101720.78;5112813;28;20042;-82
2023/07/07 05:46:29;;;;;;;11.95;7.13;;;;;;;20.09;84.12;101727.03;5113216;28;20490;-83
2023/07/07 05:52:15;;;;;;;8.57;6.43;;;;;;;20.61;81.56;101726.47;5112995;28;20264;-80
2023/07/07 05:58:04;;;;;;;14.02;6.22;;;;;;;21.26;77.58;101736.22;5112958;28;20080;-81
2023/07/07 06:03:51;;;;;;;11.70;6.95;;;;;;;22.00;81.87;101718.81;5113074;28;20129;-79
2023/07/07 06:09:38;;;;;;;12.00;6.45;;;;;;;22.81;72.52;101726.28;5113315;28;20047;-80
2023/07/07 06:15:25;;;;;;;9.10;6.60;;;;;;;23.40;69.66;101731.06;5113295;28;20081;-82
2023/07/07 06:17:50;;;;;;;11.60;6.73;;;;;;;23.68;72.92;101721.44;5093648;28;20040;-80
2023/07/07 06:23:37;;;;;;;10.15;6.32;;;;;;;24.46;67.06;101726.19;5112741;28;20062;-75
2023/07/07 06:29:24;;;;;;;8.77;6.38;;;;;;;25.13;63.52;101732.69;5111601;28;20314;-77
2023/07/07 06:35:11;;;;;;;8.05;5.28;;;;;;;25.42;58.35;101729.91;5112298;28;20280;-74
2023/07/07 06:40:58;;;;;;;8.50;5.40;;;;;;;26.27;57.12;101731.81;5112190;28;20311;-75
2023/07/07 06:46:44;;;;;;;8.63;5.30;;;;;;;26.71;54.82;101740.44;5112197;28;20035;-75
2023/07/07 06:52:32;;;;;;;7.05;4.55;;;;;;;27.10;52.20;101744.72;5112172;28;20037;-77
2023/07/07 06:58:20;;;;;;;7.72;5.45;;;;;;;27.58;50.74;101752.56;5112015;28;20035;-75
2023/07/07 07:00:45;;;;;;;6.85;5.32;;;;;;;28.07;49.18;101757.31;5092419;28;20044;-77
2023/07/07 07:06:32;;;;;;;8.95;4.82;;;;;;;28.66;45.29;101764.47;5111859;28;20552;-78
2023/07/07 07:12:19;;;;;;;9.75;5.43;;;;;;;29.66;42.88;101747.44;5110989;28;20306;-78
2023/07/07 07:18:06;;;;;;;7.75;5.40;;;;;;;30.34;42.22;101762.47;5111724;28;20085;-79
2023/07/07 07:23:53;;;;;;;7.82;4.95;;;;;;;31.23;40.52;101760.88;5112028;28;20495;-77
2023/07/07 07:29:43;;;;;;;9.63;4.50;;;;;;;31.46;39.23;101775.22;5111693;28;20301;-77
2023/07/07 07:35:30;;;;;;;8.40;4.70;;;;;;;32.12;36.86;101766.41;5111628;28;20074;-81
2023/07/07 07:41:17;;;;;;;6.50;4.35;;;;;;;32.76;36.17;101769.56;5111595;28;20575;-76
2023/07/07 07:47:04;;;;;;;8.48;4.22;;;;;;;32.95;35.27;101774.59;5111486;28;20391;-78
2023/07/07 07:52:51;;;;;;;7.03;4.00;;;;;;;33.32;34.15;101772.72;5111507;28;20447;-76
2023/07/07 07:58:38;;;;;;;7.93;4.28;;;;;;;33.65;32.55;101774.56;5111471;28;20502;-80
2023/07/07 08:04:24;;;;;;;10.48;3.78;;;;;;;33.77;34.25;101777.31;5111246;28;20393;-78
2023/07/07 08:10:11;;;;;;;6.65;3.53;;;;;;;34.50;31.69;101784.69;5111100;28;20514;-79
2023/07/07 08:12:37;;;;;;;8.83;4.00;;;;;;;34.59;30.79;101788.91;5112510;28;20028;-78
2023/07/07 08:15:03;;;;;;;8.38;3.53;;;;;;;34.78;30.69;101786.28;5113676;28;20043;-80
2023/07/07 08:17:28;;;;;;;5.38;3.20;;;;;;;35.04;30.40;101782.22;5114390;28;20488;-77
2023/07/07 08:19:54;;;;;;;9.02;3.75;;;;;;;35.13;29.82;101790.38;5095350;28;20061;-78
2023/07/07 08:25:41;;;;;;;6.60;3.20;;;;;;;35.28;29.33;101790.41;5114695;28;20038;-82
2023/07/07 08:28:06;;;;;;;5.33;3.33;;;;;;;35.47;29.00;101797.22;5088202;28;20391;-80
2023/07/07 08:30:31;;;;;;;5.30;3.40;;;;;;;35.94;28.19;101786.81;5114187;28;20027;-78
2023/07/07 08:32:56;;;;;;;5.70;3.47;;;;;;;36.26;28.81;101783.91;5113387;28;20035;-80
2023/07/07 08:38:44;;;;;;;6.38;3.17;;;;;;;36.49;28.42;101775.66;5114148;28;20111;-79
2023/07/07 08:44:33;;;;;;;6.53;3.33;;;;;;;37.48;26.52;101782.22;5114483;28;20376;-79
2023/07/07 08:50:23;;;;;;;6.93;3.20;;;;;;;37.49;27.63;101783.81;5114138;28;20034;-79
2023/07/07 08:56:10;;;;;;;5.10;2.75;;;;;;;37.38;25.39;101782.84;5113372;28;20054;-80
2023/07/07 09:02:01;;;;;;;6.18;3.15;;;;;;;37.13;26.76;101780.44;5113903;28;20427;-81
2023/07/07 09:08:04;;;;;;;7.23;3.27;;;;;;;37.56;26.06;101783.13;5114348;28;20057;-80
2023/07/07 09:13:55;;;;;;;5.63;3.10;;;;;;;37.33;24.25;101777.59;5114071;28;20065;-79
2023/07/07 09:19:45;;;;;;;6.57;3.00;;;;;;;36.15;23.85;101783.69;5113871;28;20047;-78
2023/07/07 09:25:41;;;;;;;5.70;3.20;;;;;;;36.86;26.17;101775.97;5113738;28;20054;-77
2023/07/07 09:31:31;;;;;;;4.97;3.00;;;;;;;36.16;22.73;101765.81;5113598;28;20085;-80
2023/07/07 09:34:00;;;;;;;5.40;2.97;;;;;;;36.10;23.58;101770.03;5112422;28;20043;-75
2023/07/07 09:40:09;;;;;;;3.75;2.90;;;;;;;36.08;24.59;101774.38;5113469;28;20042;-78
2023/07/07 09:46:19;;;;;;;4.67;3.07;;;;;;;36.00;25.56;101765.88;5112621;28;20502;-76
2023/07/07 09:52:19;;;;;;;5.43;2.97;;;;;;;35.76;25.08;101756.94;5113198;28;20046;-78
2023/07/07 09:54:45;;;;;;;6.97;3.40;;;;;;;36.06;25.71;101760.81;5112988;28;20022;-76
2023/07/07 10:00:35;;;;;;;6.10;3.15;;;;;;;36.71;23.73;101758.13;5113244;28;20134;-77
2023/07/07 10:07:03;;;;;;;6.00;2.90;;;;;;;33.78;27.76;101745.63;5112920;28;20408;-78
2023/07/07 10:09:31;;;;;;;9.25;3.03;;;;;;;32.13;28.59;101738.38;5098782;28;20368;-78
2023/07/07 10:18:40;;;;;;;5.20;2.83;;;;;;;30.76;34.16;101733.22;5112728;28;20135;-79
2023/07/07 10:24:27;;;;;;;3.92;3.00;;;;;;;31.42;31.53;101724.50;5112647;28;20097;-78
2023/07/07 10:30:15;;;;;;;5.28;3.00;;;;;;;31.95;30.88;101732.16;5112542;28;20084;-77
2023/07/07 10:36:26;;;;;;;4.43;3.00;;;;;;;32.70;30.05;101723.03;5111598;28;20039;-78
2023/07/07 10:42:13;;;;;;;4.32;2.90;;;;;;;35.07;23.86;101717.53;5112809;28;20481;-79
2023/07/07 10:48:00;;;;;;;5.43;3.10;;;;;;;35.73;24.04;101727.03;5112863;28;20092;-78
2023/07/07 10:54:23;;;;;;;6.43;3.20;;;;;;;33.39;27.62;101725.00;5113795;28;20352;-80
2023/07/07 11:03:50;;;;;;;7.33;2.80;;;;;;;33.54;26.78;101713.16;5112718;28;20551;-77
2023/07/07 11:10:05;;;;;;;5.43;3.05;;;;;;;31.65;31.29;101703.72;5113629;28;20070;-79
2023/07/07 11:16:44;;;;;;;3.40;2.80;;;;;;;33.42;25.36;101708.47;5111905;28;20506;-81
2023/07/07 11:22:46;;;;;;;4.88;2.97;;;;;;;34.40;24.01;101714.56;5111075;28;20411;-79
2023/07/07 11:28:55;;;;;;;7.03;3.10;;;;;;;35.28;25.85;101701.38;5111828;28;20042;-78
2023/07/07 11:34:51;;;;;;;6.47;3.63;;;;;;;33.22;25.81;101693.53;5112160;28;20077;-76
2023/07/07 11:40:50;;;;;;;4.45;3.30;;;;;;;33.18;27.37;101694.56;5111041;28;20039;-79
2023/07/07 11:46:55;;;;;;;5.20;3.05;;;;;;;31.07;29.47;101680.44;5113283;28;20045;-77
2023/07/07 11:53:03;;;;;;;5.53;3.28;;;;;;;29.96;31.53;101682.25;5115438;28;20041;-76
2023/07/07 11:59:13;;;;;;;5.78;3.20;;;;;;;30.21;32.14;101683.41;5113973;28;20077;-78
2023/07/07 12:05:01;;;;;;;7.20;3.67;;;;;;;30.64;29.00;101672.31;5114229;28;20218;-78
2023/07/07 12:10:54;;;;;;;5.85;2.90;;;;;;;31.11;29.26;101670.34;5114658;28;20123;-76
2023/07/07 12:16:43;;;;;;;5.22;3.10;;;;;;;33.43;25.17;101665.69;5114741;28;20054;-74
2023/07/07 12:22:37;;;;;;;9.13;3.45;;;;;;;33.20;26.40;101659.00;5114657;28;20422;-76
2023/07/07 12:28:24;;;;;;;5.07;3.00;;;;;;;31.25;25.84;101655.50;5114245;28;20039;-76
2023/07/07 12:34:36;;;;;;;5.90;3.35;;;;;;;31.74;27.17;101654.69;5114281;28;20527;-76
2023/07/07 12:40:24;;;;;;;5.20;3.33;;;;;;;30.93;26.85;101652.22;5114231;28;20388;-81
2023/07/07 12:42:58;;;;;;;3.90;2.92;;;;;;;30.65;28.50;101651.88;5113330;28;20043;-78
2023/07/07 12:48:46;;;;;;;4.45;2.85;;;;;;;31.51;25.99;101642.28;5114383;28;20182;-76
2023/07/07 12:54:36;;;;;;;5.53;2.90;;;;;;;33.07;24.73;101638.78;5114582;28;20046;-77
2023/07/07 13:00:32;;;;;;;5.78;3.20;;;;;;;33.02;25.27;101647.34;5114212;28;20069;-77
2023/07/07 13:06:24;;;;;;;6.20;3.45;;;;;;;32.99;26.32;101638.94;5113868;28;20069;-76
2023/07/07 13:12:44;;;;;;;6.25;3.40;;;;;;;32.18;28.30;101615.56;5114108;28;20088;-77
2023/07/07 13:18:31;;;;;;;6.20;3.17;;;;;;;31.23;28.06;101610.81;5113558;28;20514;-78
2023/07/07 13:27:40;;;;;;;4.45;3.15;;;;;;;30.28;27.62;101611.16;5113343;28;20031;-80
2023/07/07 13:33:29;;;;;;;8.10;3.40;;;;;;;30.12;29.08;101608.94;5113454;28;20043;-78
2023/07/07 13:39:18;;;;;;;5.25;3.35;;;;;;;29.59;32.07;101589.97;5113459;28;20419;-79
2023/07/07 13:45:11;;;;;;;7.22;3.58;;;;;;;29.12;29.56;101600.75;5113339;28;20408;-78
2023/07/07 13:50:58;;;;;;;6.05;3.55;;;;;;;29.04;32.59;101589.72;5113436;28;20539;-78
2023/07/07 13:56:48;;;;;;;5.78;3.15;;;;;;;28.77;28.41;101585.22;5113142;28;20124;-80
2023/07/07 14:02:36;;;;;;;10.75;3.33;;;;;;;28.96;31.96;101577.53;5112309;28;20081;-82
2023/07/07 14:08:26;;;;;;;5.43;3.30;;;;;;;28.94;33.90;101577.88;5113116;28;20047;-80
2023/07/07 14:14:13;;;;;;;6.40;3.50;;;;;;;28.76;31.45;101578.91;5113023;28;20038;-81
2023/07/07 14:20:12;;;;;;;6.68;3.75;;;;;;;28.73;32.78;101578.72;5111896;28;20042;-78
2023/07/07 14:22:38;;;;;;;6.63;3.50;;;;;;;28.64;31.69;101554.75;5112601;28;20480;-79
2023/07/07 14:28:37;;;;;;;6.63;3.40;;;;;;;28.69;30.88;101575.81;5112759;28;20057;-79
2023/07/07 14:34:24;;;;;;;5.43;3.60;;;;;;;28.60;29.55;101569.44;5112734;28;20043;-76
2023/07/07 14:40:42;;;;;;;6.72;3.88;;;;;;;28.67;29.47;101575.31;5112573;28;20293;-79
2023/07/07 14:46:35;;;;;;;6.82;3.78;;;;;;;28.88;32.30;101573.63;5112258;28;20042;-77
2023/07/07 14:52:32;;;;;;;5.20;3.50;;;;;;;28.77;33.02;101561.25;5112435;28;20046;-78
2023/07/07 14:58:24;;;;;;;6.70;4.05;;;;;;;28.75;31.85;101559.94;5112429;28;20043;-79
2023/07/07 15:04:15;;;;;;;6.15;3.75;;;;;;;28.65;26.57;101563.81;5112501;28;20438;-81
2023/07/07 15:13:28;;;;;;;5.68;3.53;;;;;;;28.68;29.52;101552.16;5112215;28;20038;-80
2023/07/07 15:19:17;;;;;;;7.15;3.60;;;;;;;28.73;29.28;101559.47;5112056;28;20090;-77
2023/07/07 15:25:05;;;;;;;8.52;4.35;;;;;;;28.59;27.68;101557.63;5115610;28;20038;-79
2023/07/07 15:30:52;;;;;;;5.40;4.32;;;;;;;28.56;27.36;101549.19;5115845;28;20538;-79
2023/07/07 15:36:38;;;;;;;6.13;4.00;;;;;;;28.83;26.49;101557.22;5115483;28;20127;-77
2023/07/07 15:42:25;;;;;;;5.63;3.67;;;;;;;28.84;28.81;101549.75;5115417;28;20085;-79
2023/07/07 15:48:13;;;;;;;8.23;4.60;;;;;;;28.74;27.58;101537.13;5115834;28;20047;-80
2023/07/07 15:54:01;;;;;;;9.65;4.35;;;;;;;28.66;28.78;101530.47;5115112;28;20100;-77
2023/07/07 15:59:51;;;;;;;6.00;3.70;;;;;;;28.81;27.50;101534.69;5115039;28;20514;-77
2023/07/07 16:05:39;;;;;;;5.97;3.88;;;;;;;28.62;30.71;101523.13;5115302;28;20123;-79
2023/07/07 16:11:26;;;;;;;5.63;4.10;;;;;;;28.62;27.96;101526.72;5114911;28;20088;-78
2023/07/07 16:17:18;;;;;;;6.15;4.10;;;;;;;28.61;28.44;101519.56;5114370;28;20066;-80
2023/07/07 16:23:05;;;;;;;8.10;4.10;;;;;;;28.55;30.64;101517.28;5114533;28;20038;-79
2023/07/07 16:28:52;;;;;;;8.27;4.40;;;;;;;28.57;29.39;101502.06;5114671;28;20043;-77
2023/07/07 16:34:40;;;;;;;5.60;3.80;;;;;;;28.57;29.36;101496.56;5114678;28;20069;-78
2023/07/07 16:37:12;;;;;;;7.43;4.25;;;;;;;28.55;29.20;101493.34;5095686;28;20417;-78
2023/07/07 16:42:40;;;;;;;6.18;4.30;;;;;;;28.40;29.59;101488.28;5114187;28;20291;-78
2023/07/07 16:48:27;;;;;;;12.43;3.92;;;;;;;28.38;29.46;101485.84;5114077;28;20299;-78
2023/07/07 16:54:14;;;;;;;6.35;4.13;;;;;;;28.48;30.65;101484.75;5113990;28;20403;-77
2023/07/07 17:00:12;;;;;;;7.68;4.13;;;;;;;28.50;28.28;101489.91;5113970;28;20088;-79
2023/07/07 17:06:00;;;;;;;5.85;4.35;;;;;;;28.37;30.87;101472.41;5114017;28;20108;-77
2023/07/07 17:11:47;;;;;;;4.90;3.83;;;;;;;28.32;29.02;101476.09;5114035;28;20078;-80
2023/07/07 17:17:34;;;;;;;8.98;3.47;;;;;;;28.17;32.60;101470.19;5113731;28;20034;-77
2023/07/07 17:23:21;;;;;;;7.88;4.45;;;;;;;28.22;31.65;101478.28;5113468;28;20838;-77
2023/07/07 17:29:15;;;;;;;8.55;4.35;;;;;;;28.12;31.84;101478.59;5113398;28;20402;-79
2023/07/07 17:35:02;;;;;;;7.40;3.95;;;;;;;27.93;31.00;101476.88;5113697;28;20050;-79
2023/07/07 17:40:49;;;;;;;6.40;3.78;;;;;;;27.87;30.79;101471.84;5113572;28;20064;-79
2023/07/07 17:46:38;;;;;;;9.13;4.05;;;;;;;27.94;33.18;101470.25;5113385;28;20097;-78
2023/07/07 17:52:25;;;;;;;6.97;3.95;;;;;;;27.95;33.67;101468.31;5113060;28;20039;-78
2023/07/07 17:58:13;;;;;;;8.27;4.22;;;;;;;27.86;30.48;101459.22;5112867;28;20069;-78
2023/07/07 18:04:00;;;;;;;8.13;4.07;;;;;;;27.87;33.53;101450.66;5113125;28;20161;-79
2023/07/07 18:09:47;;;;;;;6.38;3.92;;;;;;;27.72;33.49;101445.53;5112570;28;20126;-79
2023/07/07 18:15:34;;;;;;;10.68;4.65;;;;;;;27.61;32.68;101449.66;5113026;28;20073;-79
2023/07/07 18:21:24;;;;;;;7.32;4.00;;;;;;;27.43;33.48;101452.28;5112959;28;20046;-77
2023/07/07 18:27:11;;;;;;;6.60;3.97;;;;;;;27.22;35.61;101445.69;5112652;28;20051;-79
2023/07/07 18:29:36;;;;;;;6.33;3.80;;;;;;;27.20;34.34;101450.66;5111672;28;20048;-78
2023/07/07 18:35:25;;;;;;;9.40;4.78;;;;;;;27.10;34.76;101443.47;5112361;28;20066;-76
2023/07/07 18:41:17;;;;;;;7.15;4.15;;;;;;;27.04;36.61;101444.72;5109050;28;20047;-73
2023/07/07 18:47:12;;;;;;;7.88;3.78;;;;;;;26.87;36.03;101441.78;5112416;28;20082;-76
2023/07/07 18:53:00;;;;;;;6.13;3.88;;;;;;;26.76;36.05;101452.19;5111325;28;20094;-75
2023/07/07 18:58:48;;;;;;;8.43;3.95;;;;;;;26.59;35.84;101446.50;5109555;28;20119;-76
2023/07/07 19:04:35;;;;;;;9.10;3.72;;;;;;;26.37;36.91;101435.47;5112240;28;20051;-76
2023/07/07 19:10:37;;;;;;;8.77;3.78;;;;;;;26.25;37.79;101442.22;5112032;28;20051;-75
2023/07/07 19:16:27;;;;;;;6.72;3.65;;;;;;;26.07;36.75;101448.63;5112423;28;20046;-74
2023/07/07 19:25:35;;;;;;;7.53;3.75;;;;;;;25.70;38.78;101449.56;5111804;28;20038;-75
2023/07/07 19:31:23;;;;;;;11.75;4.00;;;;;;;25.50;39.11;101450.72;5111722;28;20086;-76
2023/07/07 19:37:10;;;;;;;6.82;3.60;;;;;;;25.24;40.17;101452.25;5111557;28;20042;-76
2023/07/07 19:42:57;;;;;;;7.55;3.85;;;;;;;24.96;42.85;101445.78;5111562;28;20123;-78
2023/07/07 19:48:45;;;;;;;8.02;3.90;;;;;;;24.77;43.98;101453.97;5111572;28;20298;-76
2023/07/07 19:54:32;;;;;;;9.25;3.75;;;;;;;24.43;46.74;101456.88;5111650;28;20074;-76
2023/07/07 20:00:21;;;;;;;6.22;3.80;;;;;;;24.16;44.66;101457.41;5110440;28;20051;-74
2023/07/07 20:06:13;;;;;;;7.13;3.83;;;;;;;23.93;46.16;101471.88;5111413;28;20086;-74
2023/07/07 20:12:03;;;;;;;6.68;3.85;;;;;;;23.74;45.99;101472.59;5114822;28;20043;-72
2023/07/07 20:17:50;;;;;;;5.50;3.38;;;;;;;23.53;48.24;101468.38;5114586;28;20062;-72
2023/07/07 20:23:37;;;;;;;7.85;3.85;;;;;;;23.38;49.28;101466.56;5114793;28;20116;-73
2023/07/07 20:29:24;;;;;;;7.82;3.33;;;;;;;23.23;50.31;101468.59;5114519;28;20069;-74
2023/07/07 20:35:11;;;;;;;5.22;3.70;;;;;;;23.02;53.45;101479.63;5114516;28;20088;-73
2023/07/07 20:40:58;;;;;;;8.35;4.13;;;;;;;22.98;53.00;101470.38;5113569;28;20100;-71
2023/07/07 20:46:45;;;;;;;8.57;3.88;;;;;;;22.84;55.10;101463.91;5114050;28;20486;-75
2023/07/07 20:52:33;;;;;;;10.73;4.28;;;;;;;22.82;57.06;101466.09;5114237;28;20054;-73
2023/07/07 20:58:19;;;;;;;6.95;3.67;;;;;;;22.75;58.41;101462.84;5113894;28;20104;-71
2023/07/07 21:04:07;;;;;;;6.28;4.32;;;;;;;22.63;60.85;101460.44;5113941;28;20039;-73
2023/07/07 21:09:53;;;;;;;7.35;4.18;;;;;;;22.55;61.70;101461.00;5114051;28;20038;-74
2023/07/07 21:15:40;;;;;;;10.30;4.28;;;;;;;22.45;62.88;101459.13;5113681;28;20112;-73
2023/07/07 21:24:58;;;;;;;6.90;4.35;;;;;;;22.37;64.04;101457.00;5113528;28;20043;-74
2023/07/07 21:30:46;;;;;;;6.65;4.00;;;;;;;22.17;65.57;101457.03;5113561;28;20093;-74
2023/07/07 21:36:37;;;;;;;6.18;4.05;;;;;;;22.08;66.01;101458.72;5113124;28;20131;-73
2023/07/07 21:42:23;;;;;;;6.70;4.18;;;;;;;21.89;67.53;101448.34;5113101;28;20034;-74
2023/07/07 21:48:18;;;;;;;8.35;4.05;;;;;;;21.90;67.61;101460.88;5113236;28;20341;-74
2023/07/07 21:54:04;;;;;;;9.20;4.07;;;;;;;21.79;68.85;101458.44;5113182;28;20073;-75
2023/07/07 21:59:51;;;;;;;8.50;4.20;;;;;;;21.75;68.48;101455.47;5112960;28;20046;-74
2023/07/07 22:05:38;;;;;;;8.10;4.00;;;;;;;21.72;68.85;101457.91;5112842;28;20361;-74
2023/07/07 22:11:25;;;;;;;6.05;4.40;;;;;;;21.60;69.97;101452.75;5113103;28;20547;-75
2023/07/07 22:17:12;;;;;;;9.40;4.38;;;;;;;21.49;70.92;101451.13;5112629;28;20764;-74
2023/07/07 22:23:00;;;;;;;6.70;4.30;;;;;;;21.36;71.33;101446.19;5112488;28;20318;-74
2023/07/07 22:28:47;;;;;;;6.53;4.60;;;;;;;21.26;71.45;101452.44;5112610;28;20041;-74
2023/07/07 22:34:34;;;;;;;7.95;4.22;;;;;;;21.16;72.37;101441.53;5111964;28;20084;-75
2023/07/07 22:40:28;;;;;;;6.35;4.45;;;;;;;21.08;72.54;101450.22;5112270;28;20303;-74
2023/07/07 22:46:23;;;;;;;5.97;4.50;;;;;;;20.99;72.99;101453.47;5112325;28;20560;-74
2023/07/07 22:52:11;;;;;;;9.15;5.10;;;;;;;20.87;74.31;101433.06;5112271;28;20029;-73
2023/07/07 22:57:58;;;;;;;10.90;4.82;;;;;;;20.77;74.58;101425.66;5112125;28;20092;-72
2023/07/07 23:03:47;;;;;;;9.32;4.68;;;;;;;20.69;75.20;101429.72;5111947;28;20360;-72
2023/07/07 23:09:37;;;;;;;5.97;4.90;;;;;;;20.64;75.42;101431.63;5112165;28;20034;-73
2023/07/07 23:15:24;;;;;;;7.35;4.80;;;;;;;20.47;77.01;101404.63;5111799;28;20092;-71
2023/07/07 23:21:13;;;;;;;6.30;4.40;;;;;;;20.37;77.84;101427.13;5111359;28;20080;-72
2023/07/07 23:27:01;;;;;;;8.27;4.70;;;;;;;20.20;79.19;101414.81;5110951;28;20043;-72
2023/07/07 23:32:52;;;;;;;7.47;5.20;;;;;;;20.14;79.84;101413.97;5111635;28;20034;-74
2023/07/07 23:38:38;;;;;;;9.10;4.63;;;;;;;20.00;80.96;101421.78;5111508;28;20050;-74
2023/07/07 23:44:25;;;;;;;10.75;5.18;;;;;;;19.96;81.10;101417.16;5114874;28;20787;-74
2023/07/07 23:50:28;;;;;;;7.32;5.07;;;;;;;19.78;82.95;101418.38;5114736;28;20276;-74
2023/07/07 23:56:20;;;;;;;8.23;5.18;;;;;;;19.68;83.43;101415.59;5114961;28;20142;-73
